sensor_id;sensor_type;location;lat;lon;timestamp;P1;durP1;ratioP1;P2;durP2;ratioP2
11386;SDS011;5748;53.102;8.456;2023-03-14T00:01:46;3.50;;;1.60;;
11386;SDS011;5748;53.102;8.456;2023-03-14T00:04:13;2.53;;;1.33;;
11386;SDS011;5748;53.102;8.456;2023-03-14T00:06:41;2.73;;;1.57;;
11386;SDS011;5748;53.102;8.456;2023-03-14T00:09:09;2.73;;;1.23;;
11386;SDS011;5748;53.102;8.456;2023-03-14T00:11:36;4.67;;;1.47;;
11386;SDS011;5748;53.102;8.456;2023-03-14T00:17:00;2.17;;;1.27;;
11386;SDS011;5748;53.102;8.456;2023-03-14T00:19:27;2.27;;;1.40;;
11386;SDS011;5748;53.102;8.456;2023-03-14T00:21:54;2.17;;;1.30;;
11386;SDS011;5748;53.102;8.456;2023-03-14T00:24:36;2.20;;;1.10;;
11386;SDS011;5748;53.102;8.456;2023-03-14T00:27:03;2.20;;;1.30;;
11386;SDS011;5748;53.102;8.456;2023-03-14T00:29:30;3.53;;;1.43;;
11386;SDS011;5748;53.102;8.456;2023-03-14T00:31:57;2.53;;;1.30;;
11386;SDS011;5748;53.102;8.456;2023-03-14T00:37:10;1.53;;;1.20;;
11386;SDS011;5748;53.102;8.456;2023-03-14T00:39:38;1.70;;;1.10;;
11386;SDS011;5748;53.102;8.456;2023-03-14T00:42:05;2.77;;;1.13;;
11386;SDS011;5748;53.102;8.456;2023-03-14T00:44:32;1.83;;;1.20;;
11386;SDS011;5748;53.102;8.456;2023-03-14T00:46:59;2.10;;;1.23;;
11386;SDS011;5748;53.102;8.456;2023-03-14T00:49:27;1.60;;;1.30;;
11386;SDS011;5748;53.102;8.456;2023-03-14T00:52:00;2.53;;;1.20;;
11386;SDS011;5748;53.102;8.456;2023-03-14T00:54:27;1.33;;;1.20;;
11386;SDS011;5748;53.102;8.456;2023-03-14T00:56:55;2.00;;;1.40;;
11386;SDS011;5748;53.102;8.456;2023-03-14T00:59:22;2.60;;;1.50;;
11386;SDS011;5748;53.102;8.456;2023-03-14T01:01:49;1.30;;;1.10;;
11386;SDS011;5748;53.102;8.456;2023-03-14T01:04:16;1.93;;;1.20;;
11386;SDS011;5748;53.102;8.456;2023-03-14T01:06:43;1.57;;;1.20;;
11386;SDS011;5748;53.102;8.456;2023-03-14T01:09:10;1.67;;;1.20;;
11386;SDS011;5748;53.102;8.456;2023-03-14T01:11:45;3.13;;;1.60;;
11386;SDS011;5748;53.102;8.456;2023-03-14T01:14:13;1.97;;;1.30;;
11386;SDS011;5748;53.102;8.456;2023-03-14T01:16:41;3.30;;;1.40;;
11386;SDS011;5748;53.102;8.456;2023-03-14T01:19:08;1.93;;;1.30;;
11386;SDS011;5748;53.102;8.456;2023-03-14T01:21:35;2.30;;;1.70;;
11386;SDS011;5748;53.102;8.456;2023-03-14T01:24:04;1.43;;;1.30;;
11386;SDS011;5748;53.102;8.456;2023-03-14T01:26:33;3.03;;;1.87;;
11386;SDS011;5748;53.102;8.456;2023-03-14T01:29:01;3.17;;;1.60;;
11386;SDS011;5748;53.102;8.456;2023-03-14T01:31:30;2.93;;;1.80;;
11386;SDS011;5748;53.102;8.456;2023-03-14T01:33:57;1.93;;;1.57;;
11386;SDS011;5748;53.102;8.456;2023-03-14T01:36:27;2.30;;;1.73;;
11386;SDS011;5748;53.102;8.456;2023-03-14T01:38:54;2.80;;;2.00;;
11386;SDS011;5748;53.102;8.456;2023-03-14T01:41:22;2.90;;;1.87;;
11386;SDS011;5748;53.102;8.456;2023-03-14T01:43:51;2.50;;;1.80;;
11386;SDS011;5748;53.102;8.456;2023-03-14T01:46:20;2.13;;;1.60;;
11386;SDS011;5748;53.102;8.456;2023-03-14T01:48:58;2.20;;;1.70;;
11386;SDS011;5748;53.102;8.456;2023-03-14T01:51:33;1.77;;;1.63;;
11386;SDS011;5748;53.102;8.456;2023-03-14T01:56:54;2.80;;;1.90;;
11386;SDS011;5748;53.102;8.456;2023-03-14T01:59:28;2.37;;;1.60;;
11386;SDS011;5748;53.102;8.456;2023-03-14T02:01:59;2.83;;;1.77;;
11386;SDS011;5748;53.102;8.456;2023-03-14T02:04:27;2.27;;;1.70;;
11386;SDS011;5748;53.102;8.456;2023-03-14T02:07:08;1.53;;;1.37;;
11386;SDS011;5748;53.102;8.456;2023-03-14T02:09:39;3.53;;;1.80;;
11386;SDS011;5748;53.102;8.456;2023-03-14T02:12:07;2.90;;;1.87;;
11386;SDS011;5748;53.102;8.456;2023-03-14T02:14:36;2.23;;;1.50;;
11386;SDS011;5748;53.102;8.456;2023-03-14T02:17:05;2.47;;;1.60;;
11386;SDS011;5748;53.102;8.456;2023-03-14T02:19:41;2.37;;;1.67;;
11386;SDS011;5748;53.102;8.456;2023-03-14T02:22:42;1.87;;;1.53;;
11386;SDS011;5748;53.102;8.456;2023-03-14T02:25:12;2.17;;;1.70;;
11386;SDS011;5748;53.102;8.456;2023-03-14T02:27:48;2.87;;;1.70;;
11386;SDS011;5748;53.102;8.456;2023-03-14T02:30:17;2.57;;;1.60;;
11386;SDS011;5748;53.102;8.456;2023-03-14T02:32:47;2.00;;;1.60;;
11386;SDS011;5748;53.102;8.456;2023-03-14T02:35:18;1.80;;;1.70;;
11386;SDS011;5748;53.102;8.456;2023-03-14T02:37:51;1.87;;;1.67;;
11386;SDS011;5748;53.102;8.456;2023-03-14T02:40:23;2.27;;;1.40;;
11386;SDS011;5748;53.102;8.456;2023-03-14T02:42:54;3.23;;;1.90;;
11386;SDS011;5748;53.102;8.456;2023-03-14T02:45:34;2.20;;;1.60;;
11386;SDS011;5748;53.102;8.456;2023-03-14T02:48:09;3.03;;;1.63;;
11386;SDS011;5748;53.102;8.456;2023-03-14T02:50:42;2.13;;;1.60;;
11386;SDS011;5748;53.102;8.456;2023-03-14T02:53:12;2.27;;;1.70;;
11386;SDS011;5748;53.102;8.456;2023-03-14T02:55:44;1.97;;;1.57;;
11386;SDS011;5748;53.102;8.456;2023-03-14T02:58:14;2.50;;;1.40;;
11386;SDS011;5748;53.102;8.456;2023-03-14T03:00:41;1.90;;;1.50;;
11386;SDS011;5748;53.102;8.456;2023-03-14T03:03:08;2.30;;;1.73;;
11386;SDS011;5748;53.102;8.456;2023-03-14T03:05:35;2.53;;;1.70;;
11386;SDS011;5748;53.102;8.456;2023-03-14T03:08:03;2.43;;;1.50;;
11386;SDS011;5748;53.102;8.456;2023-03-14T03:10:30;2.77;;;1.80;;
11386;SDS011;5748;53.102;8.456;2023-03-14T03:12:58;2.03;;;1.60;;
11386;SDS011;5748;53.102;8.456;2023-03-14T03:15:44;1.97;;;1.63;;
11386;SDS011;5748;53.102;8.456;2023-03-14T03:18:11;2.27;;;1.57;;
11386;SDS011;5748;53.102;8.456;2023-03-14T03:20:39;2.20;;;1.33;;
11386;SDS011;5748;53.102;8.456;2023-03-14T03:23:06;1.67;;;1.30;;
11386;SDS011;5748;53.102;8.456;2023-03-14T03:25:34;1.33;;;1.13;;
11386;SDS011;5748;53.102;8.456;2023-03-14T03:28:01;2.23;;;1.60;;
11386;SDS011;5748;53.102;8.456;2023-03-14T03:30:32;2.23;;;1.37;;
11386;SDS011;5748;53.102;8.456;2023-03-14T03:33:04;2.57;;;1.70;;
11386;SDS011;5748;53.102;8.456;2023-03-14T03:35:31;2.07;;;1.30;;
11386;SDS011;5748;53.102;8.456;2023-03-14T03:38:09;2.00;;;1.20;;
11386;SDS011;5748;53.102;8.456;2023-03-14T03:40:37;1.27;;;1.00;;
11386;SDS011;5748;53.102;8.456;2023-03-14T03:43:04;1.10;;;1.00;;
11386;SDS011;5748;53.102;8.456;2023-03-14T03:45:32;1.03;;;0.97;;
11386;SDS011;5748;53.102;8.456;2023-03-14T03:47:58;1.17;;;1.00;;
11386;SDS011;5748;53.102;8.456;2023-03-14T03:50:27;0.97;;;0.80;;
11386;SDS011;5748;53.102;8.456;2023-03-14T03:53:01;1.07;;;0.80;;
11386;SDS011;5748;53.102;8.456;2023-03-14T03:55:28;1.20;;;0.90;;
11386;SDS011;5748;53.102;8.456;2023-03-14T03:57:55;1.37;;;0.90;;
11386;SDS011;5748;53.102;8.456;2023-03-14T04:00:22;1.00;;;0.90;;
11386;SDS011;5748;53.102;8.456;2023-03-14T04:02:49;1.30;;;0.90;;
11386;SDS011;5748;53.102;8.456;2023-03-14T04:08:24;1.77;;;0.90;;
11386;SDS011;5748;53.102;8.456;2023-03-14T04:10:53;1.33;;;0.90;;
11386;SDS011;5748;53.102;8.456;2023-03-14T04:13:23;1.40;;;0.87;;
11386;SDS011;5748;53.102;8.456;2023-03-14T04:15:54;1.50;;;1.00;;
11386;SDS011;5748;53.102;8.456;2023-03-14T04:18:22;1.90;;;0.90;;
11386;SDS011;5748;53.102;8.456;2023-03-14T04:20:52;0.93;;;0.93;;
11386;SDS011;5748;53.102;8.456;2023-03-14T04:23:20;1.47;;;1.00;;
11386;SDS011;5748;53.102;8.456;2023-03-14T04:25:49;1.40;;;1.20;;
11386;SDS011;5748;53.102;8.456;2023-03-14T04:28:16;1.93;;;1.33;;
11386;SDS011;5748;53.102;8.456;2023-03-14T04:30:43;1.53;;;1.20;;
11386;SDS011;5748;53.102;8.456;2023-03-14T04:33:10;2.80;;;1.50;;
11386;SDS011;5748;53.102;8.456;2023-03-14T04:35:42;1.70;;;1.23;;
11386;SDS011;5748;53.102;8.456;2023-03-14T04:38:10;1.40;;;1.10;;
11386;SDS011;5748;53.102;8.456;2023-03-14T04:40:40;1.37;;;1.10;;
11386;SDS011;5748;53.102;8.456;2023-03-14T04:43:08;2.10;;;1.03;;
11386;SDS011;5748;53.102;8.456;2023-03-14T04:45:36;1.03;;;1.00;;
11386;SDS011;5748;53.102;8.456;2023-03-14T04:48:03;2.00;;;1.30;;
11386;SDS011;5748;53.102;8.456;2023-03-14T04:50:31;1.13;;;1.00;;
11386;SDS011;5748;53.102;8.456;2023-03-14T04:52:58;1.80;;;1.20;;
11386;SDS011;5748;53.102;8.456;2023-03-14T04:55:26;2.07;;;1.13;;
11386;SDS011;5748;53.102;8.456;2023-03-14T04:57:53;1.43;;;1.20;;
11386;SDS011;5748;53.102;8.456;2023-03-14T05:00:20;1.23;;;1.00;;
11386;SDS011;5748;53.102;8.456;2023-03-14T05:02:47;1.60;;;1.10;;
11386;SDS011;5748;53.102;8.456;2023-03-14T05:05:14;1.30;;;1.20;;
11386;SDS011;5748;53.102;8.456;2023-03-14T05:07:41;1.50;;;1.00;;
11386;SDS011;5748;53.102;8.456;2023-03-14T05:10:11;1.23;;;0.80;;
11386;SDS011;5748;53.102;8.456;2023-03-14T05:12:39;1.93;;;1.10;;
11386;SDS011;5748;53.102;8.456;2023-03-14T05:15:06;2.10;;;1.33;;
11386;SDS011;5748;53.102;8.456;2023-03-14T05:17:35;1.30;;;1.17;;
11386;SDS011;5748;53.102;8.456;2023-03-14T05:22:39;1.47;;;1.17;;
11386;SDS011;5748;53.102;8.456;2023-03-14T05:25:06;1.57;;;1.10;;
11386;SDS011;5748;53.102;8.456;2023-03-14T05:27:35;2.13;;;1.33;;
11386;SDS011;5748;53.102;8.456;2023-03-14T05:30:03;2.13;;;1.03;;
11386;SDS011;5748;53.102;8.456;2023-03-14T05:35:28;3.13;;;1.20;;
11386;SDS011;5748;53.102;8.456;2023-03-14T05:37:55;1.40;;;1.10;;
11386;SDS011;5748;53.102;8.456;2023-03-14T05:40:22;2.90;;;1.20;;
11386;SDS011;5748;53.102;8.456;2023-03-14T05:42:50;1.20;;;1.10;;
11386;SDS011;5748;53.102;8.456;2023-03-14T05:45:18;1.90;;;1.00;;
11386;SDS011;5748;53.102;8.456;2023-03-14T05:50:32;1.37;;;1.00;;
11386;SDS011;5748;53.102;8.456;2023-03-14T05:52:59;1.43;;;1.10;;
11386;SDS011;5748;53.102;8.456;2023-03-14T05:55:38;3.00;;;1.10;;
11386;SDS011;5748;53.102;8.456;2023-03-14T05:58:11;1.60;;;1.03;;
11386;SDS011;5748;53.102;8.456;2023-03-14T06:00:51;2.13;;;1.00;;
11386;SDS011;5748;53.102;8.456;2023-03-14T06:03:18;1.50;;;1.07;;
11386;SDS011;5748;53.102;8.456;2023-03-14T06:05:45;2.53;;;1.00;;
11386;SDS011;5748;53.102;8.456;2023-03-14T06:08:12;2.50;;;1.23;;
11386;SDS011;5748;53.102;8.456;2023-03-14T06:10:40;1.30;;;0.90;;
11386;SDS011;5748;53.102;8.456;2023-03-14T06:13:07;1.27;;;0.90;;
11386;SDS011;5748;53.102;8.456;2023-03-14T06:15:36;1.67;;;1.10;;
11386;SDS011;5748;53.102;8.456;2023-03-14T06:18:04;1.30;;;1.00;;
11386;SDS011;5748;53.102;8.456;2023-03-14T06:20:31;2.10;;;1.20;;
11386;SDS011;5748;53.102;8.456;2023-03-14T06:23:00;1.20;;;1.00;;
11386;SDS011;5748;53.102;8.456;2023-03-14T06:25:27;1.63;;;0.90;;
11386;SDS011;5748;53.102;8.456;2023-03-14T06:27:54;1.07;;;0.77;;
11386;SDS011;5748;53.102;8.456;2023-03-14T06:30:21;1.13;;;0.90;;
11386;SDS011;5748;53.102;8.456;2023-03-14T06:32:48;1.73;;;0.80;;
11386;SDS011;5748;53.102;8.456;2023-03-14T06:35:16;1.70;;;0.90;;
11386;SDS011;5748;53.102;8.456;2023-03-14T06:37:44;1.83;;;0.80;;
11386;SDS011;5748;53.102;8.456;2023-03-14T06:40:11;1.63;;;0.90;;
11386;SDS011;5748;53.102;8.456;2023-03-14T06:42:41;1.17;;;0.70;;
11386;SDS011;5748;53.102;8.456;2023-03-14T06:45:09;1.00;;;0.90;;
11386;SDS011;5748;53.102;8.456;2023-03-14T06:47:36;1.00;;;0.87;;
11386;SDS011;5748;53.102;8.456;2023-03-14T06:50:04;1.80;;;1.13;;
11386;SDS011;5748;53.102;8.456;2023-03-14T06:52:33;1.47;;;0.90;;
11386;SDS011;5748;53.102;8.456;2023-03-14T06:55:00;1.10;;;0.93;;
11386;SDS011;5748;53.102;8.456;2023-03-14T06:57:28;1.27;;;0.90;;
11386;SDS011;5748;53.102;8.456;2023-03-14T06:59:55;2.17;;;1.20;;
11386;SDS011;5748;53.102;8.456;2023-03-14T07:02:22;2.27;;;1.10;;
11386;SDS011;5748;53.102;8.456;2023-03-14T07:04:49;1.50;;;1.03;;
11386;SDS011;5748;53.102;8.456;2023-03-14T07:07:16;3.30;;;1.30;;
11386;SDS011;5748;53.102;8.456;2023-03-14T07:09:44;1.47;;;0.90;;
11386;SDS011;5748;53.102;8.456;2023-03-14T07:12:11;3.27;;;1.23;;
11386;SDS011;5748;53.102;8.456;2023-03-14T07:14:38;1.53;;;0.90;;
11386;SDS011;5748;53.102;8.456;2023-03-14T07:17:05;1.47;;;0.97;;
11386;SDS011;5748;53.102;8.456;2023-03-14T07:19:32;2.73;;;1.23;;
11386;SDS011;5748;53.102;8.456;2023-03-14T07:21:59;1.63;;;1.10;;
11386;SDS011;5748;53.102;8.456;2023-03-14T07:24:26;1.63;;;1.00;;
11386;SDS011;5748;53.102;8.456;2023-03-14T07:27:06;1.67;;;1.23;;
11386;SDS011;5748;53.102;8.456;2023-03-14T07:29:33;2.27;;;1.30;;
11386;SDS011;5748;53.102;8.456;2023-03-14T07:32:00;2.40;;;1.30;;
11386;SDS011;5748;53.102;8.456;2023-03-14T07:34:27;1.40;;;1.03;;
11386;SDS011;5748;53.102;8.456;2023-03-14T07:36:54;1.60;;;0.97;;
11386;SDS011;5748;53.102;8.456;2023-03-14T07:39:21;1.47;;;0.83;;
11386;SDS011;5748;53.102;8.456;2023-03-14T07:41:48;2.33;;;1.17;;
11386;SDS011;5748;53.102;8.456;2023-03-14T07:44:16;2.67;;;1.17;;
11386;SDS011;5748;53.102;8.456;2023-03-14T07:46:43;1.93;;;1.10;;
11386;SDS011;5748;53.102;8.456;2023-03-14T07:49:10;1.23;;;1.00;;
11386;SDS011;5748;53.102;8.456;2023-03-14T07:51:37;1.60;;;1.10;;
11386;SDS011;5748;53.102;8.456;2023-03-14T07:54:04;1.80;;;1.00;;
11386;SDS011;5748;53.102;8.456;2023-03-14T07:56:31;1.63;;;1.10;;
11386;SDS011;5748;53.102;8.456;2023-03-14T07:58:58;2.43;;;1.00;;
11386;SDS011;5748;53.102;8.456;2023-03-14T08:01:26;1.47;;;0.97;;
11386;SDS011;5748;53.102;8.456;2023-03-14T08:03:53;2.80;;;1.10;;
11386;SDS011;5748;53.102;8.456;2023-03-14T08:06:20;1.40;;;1.07;;
11386;SDS011;5748;53.102;8.456;2023-03-14T08:08:47;1.00;;;0.87;;
11386;SDS011;5748;53.102;8.456;2023-03-14T08:11:14;1.97;;;1.20;;
11386;SDS011;5748;53.102;8.456;2023-03-14T08:13:41;2.10;;;1.20;;
11386;SDS011;5748;53.102;8.456;2023-03-14T08:16:14;1.13;;;0.90;;
11386;SDS011;5748;53.102;8.456;2023-03-14T08:18:43;2.47;;;1.00;;
11386;SDS011;5748;53.102;8.456;2023-03-14T08:21:10;2.73;;;1.00;;
11386;SDS011;5748;53.102;8.456;2023-03-14T08:23:38;1.63;;;0.97;;
11386;SDS011;5748;53.102;8.456;2023-03-14T08:26:05;1.90;;;0.90;;
11386;SDS011;5748;53.102;8.456;2023-03-14T08:28:32;3.77;;;1.20;;
11386;SDS011;5748;53.102;8.456;2023-03-14T08:30:59;1.13;;;0.90;;
11386;SDS011;5748;53.102;8.456;2023-03-14T08:33:28;1.27;;;0.97;;
11386;SDS011;5748;53.102;8.456;2023-03-14T08:35:57;1.10;;;0.87;;
11386;SDS011;5748;53.102;8.456;2023-03-14T08:38:26;1.30;;;1.00;;
11386;SDS011;5748;53.102;8.456;2023-03-14T08:40:56;2.03;;;0.90;;
11386;SDS011;5748;53.102;8.456;2023-03-14T08:43:24;1.77;;;0.90;;
11386;SDS011;5748;53.102;8.456;2023-03-14T08:45:51;1.77;;;0.90;;
11386;SDS011;5748;53.102;8.456;2023-03-14T08:48:18;2.30;;;1.20;;
11386;SDS011;5748;53.102;8.456;2023-03-14T08:50:46;1.13;;;0.93;;
11386;SDS011;5748;53.102;8.456;2023-03-14T08:53:14;1.07;;;1.00;;
11386;SDS011;5748;53.102;8.456;2023-03-14T08:55:41;1.23;;;1.00;;
11386;SDS011;5748;53.102;8.456;2023-03-14T08:58:08;1.57;;;0.73;;
11386;SDS011;5748;53.102;8.456;2023-03-14T09:00:35;0.50;;;0.50;;
11386;SDS011;5748;53.102;8.456;2023-03-14T09:03:02;0.60;;;0.60;;
11386;SDS011;5748;53.102;8.456;2023-03-14T09:05:32;0.73;;;0.50;;
11386;SDS011;5748;53.102;8.456;2023-03-14T09:08:00;0.57;;;0.50;;
11386;SDS011;5748;53.102;8.456;2023-03-14T09:10:28;1.57;;;0.70;;
11386;SDS011;5748;53.102;8.456;2023-03-14T09:12:55;0.50;;;0.50;;
11386;SDS011;5748;53.102;8.456;2023-03-14T09:15:23;1.63;;;0.70;;
11386;SDS011;5748;53.102;8.456;2023-03-14T09:17:50;0.60;;;0.60;;
11386;SDS011;5748;53.102;8.456;2023-03-14T09:20:17;0.53;;;0.40;;
11386;SDS011;5748;53.102;8.456;2023-03-14T09:22:44;1.07;;;0.50;;
11386;SDS011;5748;53.102;8.456;2023-03-14T09:25:11;2.20;;;0.60;;
11386;SDS011;5748;53.102;8.456;2023-03-14T09:27:39;0.80;;;0.50;;
11386;SDS011;5748;53.102;8.456;2023-03-14T09:30:07;0.77;;;0.43;;
11386;SDS011;5748;53.102;8.456;2023-03-14T09:32:35;0.40;;;0.40;;
11386;SDS011;5748;53.102;8.456;2023-03-14T09:35:03;0.30;;;0.30;;
11386;SDS011;5748;53.102;8.456;2023-03-14T09:37:30;0.40;;;0.40;;
11386;SDS011;5748;53.102;8.456;2023-03-14T09:39:57;0.30;;;0.30;;
11386;SDS011;5748;53.102;8.456;2023-03-14T09:42:25;0.30;;;0.30;;
11386;SDS011;5748;53.102;8.456;2023-03-14T09:44:56;0.50;;;0.37;;
11386;SDS011;5748;53.102;8.456;2023-03-14T09:47:26;0.30;;;0.30;;
11386;SDS011;5748;53.102;8.456;2023-03-14T09:49:54;0.80;;;0.40;;
11386;SDS011;5748;53.102;8.456;2023-03-14T09:52:22;0.47;;;0.40;;
11386;SDS011;5748;53.102;8.456;2023-03-14T09:54:54;0.40;;;0.40;;
11386;SDS011;5748;53.102;8.456;2023-03-14T09:57:26;0.40;;;0.40;;
11386;SDS011;5748;53.102;8.456;2023-03-14T09:59:56;0.37;;;0.37;;
11386;SDS011;5748;53.102;8.456;2023-03-14T10:02:34;0.93;;;0.30;;
11386;SDS011;5748;53.102;8.456;2023-03-14T10:05:05;0.40;;;0.40;;
11386;SDS011;5748;53.102;8.456;2023-03-14T10:07:40;0.97;;;0.50;;
11386;SDS011;5748;53.102;8.456;2023-03-14T10:10:09;0.70;;;0.40;;
11386;SDS011;5748;53.102;8.456;2023-03-14T10:12:39;0.40;;;0.40;;
11386;SDS011;5748;53.102;8.456;2023-03-14T10:15:09;0.40;;;0.30;;
11386;SDS011;5748;53.102;8.456;2023-03-14T10:17:39;0.30;;;0.30;;
11386;SDS011;5748;53.102;8.456;2023-03-14T10:20:25;1.80;;;0.57;;
11386;SDS011;5748;53.102;8.456;2023-03-14T10:22:58;0.53;;;0.43;;
11386;SDS011;5748;53.102;8.456;2023-03-14T10:25:26;0.87;;;0.53;;
11386;SDS011;5748;53.102;8.456;2023-03-14T10:27:56;0.87;;;0.50;;
11386;SDS011;5748;53.102;8.456;2023-03-14T10:30:32;0.77;;;0.33;;
11386;SDS011;5748;53.102;8.456;2023-03-14T10:33:10;0.40;;;0.40;;
11386;SDS011;5748;53.102;8.456;2023-03-14T10:35:52;0.40;;;0.40;;
11386;SDS011;5748;53.102;8.456;2023-03-14T10:38:21;0.30;;;0.30;;
11386;SDS011;5748;53.102;8.456;2023-03-14T10:40:51;0.83;;;0.40;;
11386;SDS011;5748;53.102;8.456;2023-03-14T10:43:22;0.37;;;0.37;;
11386;SDS011;5748;53.102;8.456;2023-03-14T10:45:54;1.20;;;0.60;;
11386;SDS011;5748;53.102;8.456;2023-03-14T10:48:25;0.83;;;0.50;;
11386;SDS011;5748;53.102;8.456;2023-03-14T10:50:59;0.60;;;0.60;;
11386;SDS011;5748;53.102;8.456;2023-03-14T10:53:41;1.30;;;0.60;;
11386;SDS011;5748;53.102;8.456;2023-03-14T10:56:13;0.77;;;0.50;;
11386;SDS011;5748;53.102;8.456;2023-03-14T10:58:42;0.50;;;0.47;;
11386;SDS011;5748;53.102;8.456;2023-03-14T11:04:18;1.20;;;0.70;;
11386;SDS011;5748;53.102;8.456;2023-03-14T11:07:06;1.60;;;0.73;;
11386;SDS011;5748;53.102;8.456;2023-03-14T11:09:40;1.00;;;0.63;;
11386;SDS011;5748;53.102;8.456;2023-03-14T11:12:15;1.33;;;0.70;;
11386;SDS011;5748;53.102;8.456;2023-03-14T11:15:02;0.63;;;0.50;;
11386;SDS011;5748;53.102;8.456;2023-03-14T11:17:41;0.80;;;0.50;;
11386;SDS011;5748;53.102;8.456;2023-03-14T11:20:25;1.43;;;0.60;;
11386;SDS011;5748;53.102;8.456;2023-03-14T11:23:02;2.10;;;0.60;;
11386;SDS011;5748;53.102;8.456;2023-03-14T11:25:39;1.47;;;0.63;;
11386;SDS011;5748;53.102;8.456;2023-03-14T11:28:17;1.10;;;0.60;;
11386;SDS011;5748;53.102;8.456;2023-03-14T11:31:00;1.03;;;0.70;;
11386;SDS011;5748;53.102;8.456;2023-03-14T11:33:41;2.60;;;1.10;;
11386;SDS011;5748;53.102;8.456;2023-03-14T11:36:19;4.83;;;1.20;;
11386;SDS011;5748;53.102;8.456;2023-03-14T11:38:51;1.70;;;0.80;;
11386;SDS011;5748;53.102;8.456;2023-03-14T11:41:22;1.93;;;1.00;;
11386;SDS011;5748;53.102;8.456;2023-03-14T11:43:54;2.27;;;1.03;;
11386;SDS011;5748;53.102;8.456;2023-03-14T11:46:24;3.17;;;1.20;;
11386;SDS011;5748;53.102;8.456;2023-03-14T11:48:58;3.17;;;1.43;;
11386;SDS011;5748;53.102;8.456;2023-03-14T11:51:32;1.87;;;0.97;;
11386;SDS011;5748;53.102;8.456;2023-03-14T11:54:08;3.30;;;1.40;;
11386;SDS011;5748;53.102;8.456;2023-03-14T11:56:44;2.03;;;1.07;;
11386;SDS011;5748;53.102;8.456;2023-03-14T11:59:18;2.47;;;1.00;;
11386;SDS011;5748;53.102;8.456;2023-03-14T12:01:51;3.17;;;1.00;;
11386;SDS011;5748;53.102;8.456;2023-03-14T12:04:25;1.60;;;0.87;;
11386;SDS011;5748;53.102;8.456;2023-03-14T12:09:49;2.13;;;0.93;;
11386;SDS011;5748;53.102;8.456;2023-03-14T12:12:18;4.47;;;1.30;;
11386;SDS011;5748;53.102;8.456;2023-03-14T12:14:52;1.87;;;1.10;;
11386;SDS011;5748;53.102;8.456;2023-03-14T12:17:22;3.73;;;1.30;;
11386;SDS011;5748;53.102;8.456;2023-03-14T12:20:04;2.57;;;1.03;;
11386;SDS011;5748;53.102;8.456;2023-03-14T12:22:43;5.43;;;1.80;;
11386;SDS011;5748;53.102;8.456;2023-03-14T12:25:14;3.10;;;1.10;;
11386;SDS011;5748;53.102;8.456;2023-03-14T12:27:46;3.30;;;1.30;;
11386;SDS011;5748;53.102;8.456;2023-03-14T12:30:30;2.67;;;1.13;;
11386;SDS011;5748;53.102;8.456;2023-03-14T12:36:02;3.30;;;1.27;;
11386;SDS011;5748;53.102;8.456;2023-03-14T12:38:41;4.20;;;1.43;;
11386;SDS011;5748;53.102;8.456;2023-03-14T12:41:17;2.40;;;1.00;;
11386;SDS011;5748;53.102;8.456;2023-03-14T12:43:47;2.67;;;1.20;;
11386;SDS011;5748;53.102;8.456;2023-03-14T12:49:03;2.20;;;1.00;;
11386;SDS011;5748;53.102;8.456;2023-03-14T12:54:35;1.77;;;0.90;;
11386;SDS011;5748;53.102;8.456;2023-03-14T12:57:20;1.43;;;0.80;;
11386;SDS011;5748;53.102;8.456;2023-03-14T12:59:55;1.20;;;0.73;;
11386;SDS011;5748;53.102;8.456;2023-03-14T13:02:24;2.50;;;0.90;;
11386;SDS011;5748;53.102;8.456;2023-03-14T13:04:54;2.03;;;0.90;;
11386;SDS011;5748;53.102;8.456;2023-03-14T13:07:32;1.80;;;0.87;;
11386;SDS011;5748;53.102;8.456;2023-03-14T13:10:21;1.47;;;0.90;;
11386;SDS011;5748;53.102;8.456;2023-03-14T13:15:49;1.90;;;0.93;;
11386;SDS011;5748;53.102;8.456;2023-03-14T13:18:27;2.87;;;1.17;;
11386;SDS011;5748;53.102;8.456;2023-03-14T13:23:57;4.00;;;1.13;;
11386;SDS011;5748;53.102;8.456;2023-03-14T13:26:32;2.80;;;1.10;;
11386;SDS011;5748;53.102;8.456;2023-03-14T13:29:08;2.20;;;1.13;;
11386;SDS011;5748;53.102;8.456;2023-03-14T13:31:43;2.90;;;1.00;;
11386;SDS011;5748;53.102;8.456;2023-03-14T13:37:04;1.30;;;0.70;;
11386;SDS011;5748;53.102;8.456;2023-03-14T13:39:32;1.87;;;0.87;;
11386;SDS011;5748;53.102;8.456;2023-03-14T13:42:00;2.07;;;1.03;;
11386;SDS011;5748;53.102;8.456;2023-03-14T13:44:29;1.77;;;0.90;;
11386;SDS011;5748;53.102;8.456;2023-03-14T13:47:00;2.03;;;1.17;;
11386;SDS011;5748;53.102;8.456;2023-03-14T13:52:29;1.43;;;0.80;;
11386;SDS011;5748;53.102;8.456;2023-03-14T13:55:00;2.33;;;1.20;;
11386;SDS011;5748;53.102;8.456;2023-03-14T13:57:42;1.63;;;0.80;;
11386;SDS011;5748;53.102;8.456;2023-03-14T14:00:18;1.73;;;0.80;;
11386;SDS011;5748;53.102;8.456;2023-03-14T14:05:39;2.43;;;0.90;;
11386;SDS011;5748;53.102;8.456;2023-03-14T14:08:13;4.17;;;1.30;;
11386;SDS011;5748;53.102;8.456;2023-03-14T14:10:47;1.40;;;0.97;;
11386;SDS011;5748;53.102;8.456;2023-03-14T14:13:18;1.87;;;0.90;;
11386;SDS011;5748;53.102;8.456;2023-03-14T14:15:55;1.47;;;0.87;;
11386;SDS011;5748;53.102;8.456;2023-03-14T14:18:31;1.73;;;0.90;;
11386;SDS011;5748;53.102;8.456;2023-03-14T14:21:02;1.10;;;0.90;;
11386;SDS011;5748;53.102;8.456;2023-03-14T14:23:30;2.37;;;1.00;;
11386;SDS011;5748;53.102;8.456;2023-03-14T14:26:04;1.63;;;0.90;;
11386;SDS011;5748;53.102;8.456;2023-03-14T14:28:33;2.77;;;0.90;;
11386;SDS011;5748;53.102;8.456;2023-03-14T14:34:04;2.97;;;1.00;;
11386;SDS011;5748;53.102;8.456;2023-03-14T14:36:57;1.43;;;0.80;;
11386;SDS011;5748;53.102;8.456;2023-03-14T14:39:46;1.50;;;0.77;;
11386;SDS011;5748;53.102;8.456;2023-03-14T14:42:26;1.10;;;0.70;;
11386;SDS011;5748;53.102;8.456;2023-03-14T14:44:57;1.73;;;0.70;;
11386;SDS011;5748;53.102;8.456;2023-03-14T14:47:33;1.57;;;0.80;;
11386;SDS011;5748;53.102;8.456;2023-03-14T14:50:03;1.13;;;0.70;;
11386;SDS011;5748;53.102;8.456;2023-03-14T14:52:45;1.63;;;0.93;;
11386;SDS011;5748;53.102;8.456;2023-03-14T14:55:16;2.07;;;1.00;;
11386;SDS011;5748;53.102;8.456;2023-03-14T15:00:23;1.47;;;0.70;;
11386;SDS011;5748;53.102;8.456;2023-03-14T15:02:52;1.17;;;0.70;;
11386;SDS011;5748;53.102;8.456;2023-03-14T15:05:21;2.40;;;0.70;;
11386;SDS011;5748;53.102;8.456;2023-03-14T15:07:50;2.27;;;0.70;;
11386;SDS011;5748;53.102;8.456;2023-03-14T15:10:18;1.57;;;0.70;;
11386;SDS011;5748;53.102;8.456;2023-03-14T15:12:47;1.23;;;0.80;;
11386;SDS011;5748;53.102;8.456;2023-03-14T15:15:16;2.50;;;1.00;;
11386;SDS011;5748;53.102;8.456;2023-03-14T15:17:44;1.77;;;0.73;;
11386;SDS011;5748;53.102;8.456;2023-03-14T15:20:14;1.37;;;0.77;;
11386;SDS011;5748;53.102;8.456;2023-03-14T15:22:43;2.90;;;1.00;;
11386;SDS011;5748;53.102;8.456;2023-03-14T15:25:10;1.67;;;0.90;;
11386;SDS011;5748;53.102;8.456;2023-03-14T15:27:40;1.60;;;0.80;;
11386;SDS011;5748;53.102;8.456;2023-03-14T15:30:14;1.00;;;0.73;;
11386;SDS011;5748;53.102;8.456;2023-03-14T15:32:43;2.57;;;1.00;;
11386;SDS011;5748;53.102;8.456;2023-03-14T15:35:29;1.77;;;0.87;;
11386;SDS011;5748;53.102;8.456;2023-03-14T15:37:58;3.10;;;0.90;;
11386;SDS011;5748;53.102;8.456;2023-03-14T15:40:26;2.17;;;1.10;;
11386;SDS011;5748;53.102;8.456;2023-03-14T15:42:53;1.33;;;0.80;;
11386;SDS011;5748;53.102;8.456;2023-03-14T15:45:21;1.97;;;1.00;;
11386;SDS011;5748;53.102;8.456;2023-03-14T15:47:48;1.57;;;0.80;;
11386;SDS011;5748;53.102;8.456;2023-03-14T15:50:15;1.60;;;0.87;;
11386;SDS011;5748;53.102;8.456;2023-03-14T15:52:44;2.57;;;0.80;;
11386;SDS011;5748;53.102;8.456;2023-03-14T15:55:13;1.30;;;0.93;;
11386;SDS011;5748;53.102;8.456;2023-03-14T15:57:41;2.23;;;0.80;;
11386;SDS011;5748;53.102;8.456;2023-03-14T16:00:22;1.40;;;0.90;;
11386;SDS011;5748;53.102;8.456;2023-03-14T16:02:51;3.47;;;1.00;;
11386;SDS011;5748;53.102;8.456;2023-03-14T16:05:29;1.70;;;0.80;;
11386;SDS011;5748;53.102;8.456;2023-03-14T16:07:55;3.10;;;0.80;;
11386;SDS011;5748;53.102;8.456;2023-03-14T16:13:01;1.77;;;0.90;;
11386;SDS011;5748;53.102;8.456;2023-03-14T16:15:29;2.50;;;1.00;;
11386;SDS011;5748;53.102;8.456;2023-03-14T16:17:56;1.20;;;0.80;;